Lady Windridge — WDF3174 — position and weather

sailwx.info

Track history (hours):
 
Tides and Currents Weather Stations Pressure Air Temp Water Temp Dewpoint Dewpoint Depression Visibility Wind Speed Wind Dir Waves Ship Positions

Lady Windridge

Owner: DEEP SEA CHARTERS DBA WINDRIDGE YACHTS, FORT LAUDERDALE, FL. More information available from US FCC via Universal Licensing System and Coast Guard Vessel Documentation Center.

Last reported at 2018-Apr-23 04:00 UTC. Time now 2018-Apr-23 04:00 UTC.
Position N 42°21' W 071°03'.

Length 54 m; draft 2.9 m.

Type: Passenger vessel. MMSI: 338079044.

Date/timePositionNaut miles runAvg speedWind from/ knotsBaromVisibWave heightAir tempDewpointWater temp
2018-Apr-23 04:00N 42°21' W 071°03'0 0.0
2018-Apr-23 03:31N 42°21' W 071°03'0 0.0
2018-Apr-23 03:00N 42°21' W 071°03'0 0.0
2018-Apr-23 02:31N 42°21' W 071°03'0 0.0
2018-Apr-23 02:00N 42°21' W 071°03'0 0.0
2018-Apr-23 01:31N 42°21' W 071°03'0 0.0
2018-Apr-23 01:01N 42°21' W 071°03'0 0.0
2018-Apr-23 00:30N 42°21' W 071°03'0 0.0
2018-Apr-23 00:01N 42°21' W 071°03'0 0.0
2018-Apr-22 23:30N 42°21' W 071°03'0 0.0
2018-Apr-22 23:00N 42°21' W 071°03'0 0.0
2018-Apr-22 22:31N 42°21' W 071°03'0 0.0
2018-Apr-22 22:01N 42°21' W 071°03'0 0.3
2018-Apr-22 21:30N 42°21' W 071°03'0 0.3
2018-Apr-22 21:00N 42°21' W 071°03'0 0.0
2018-Apr-22 20:30N 42°21' W 071°03'0 0.0
2018-Apr-22 20:00N 42°21' W 071°03'0 0.0
2018-Apr-22 19:30N 42°21' W 071°03'0 0.0
2018-Apr-22 19:00N 42°21' W 071°03'1 1.3
2018-Apr-22 18:30N 42°22' W 071°03'2 4.0
2018-Apr-22 18:00N 42°21' W 071°01'0 0.5
2018-Apr-22 17:31N 42°20' W 071°01'2 3.9
2018-Apr-22 17:00N 42°21' W 071°03'0 0.0
2018-Apr-22 16:30N 42°21' W 071°03'0 0.0
2018-Apr-22 16:00N 42°21' W 071°03'0 0.0
2018-Apr-22 15:31N 42°21' W 071°03'0 0.0
2018-Apr-22 15:00N 42°21' W 071°03'0 0.0
2018-Apr-22 14:30N 42°21' W 071°03'0 0.0
2018-Apr-22 14:01N 42°21' W 071°03'0 0.0
2018-Apr-22 13:30N 42°21' W 071°03'0 0.0
2018-Apr-22 13:00N 42°21' W 071°03'0 0.0
2018-Apr-22 12:30N 42°21' W 071°03'0 0.0
2018-Apr-22 12:00N 42°21' W 071°03'0 0.0
2018-Apr-22 11:30N 42°21' W 071°03'0 0.0
2018-Apr-22 11:00N 42°21' W 071°03'0 0.0
2018-Apr-22 10:30N 42°21' W 071°03'0 0.0
2018-Apr-22 10:01N 42°21' W 071°03'0 0.0
2018-Apr-22 09:30N 42°21' W 071°03'0 0.0
2018-Apr-22 09:01N 42°21' W 071°03'0 0.1
2018-Apr-22 08:30N 42°21' W 071°03'0 0.2
2018-Apr-22 08:01N 42°21' W 071°03'0 0.0
2018-Apr-22 07:31N 42°21' W 071°03'0 0.0
2018-Apr-22 07:00N 42°21' W 071°03'0 0.0
2018-Apr-22 06:30N 42°21' W 071°03'0 0.0
2018-Apr-22 05:59N 42°21' W 071°03'0 0.0
2018-Apr-22 05:22N 42°21' W 071°03'0 0.0
2018-Apr-22 04:53N 42°21' W 071°03'0 0.0
2018-Apr-22 04:27N 42°21' W 071°03'0 0.0
2018-Apr-22 04:00N 42°21' W 071°03'0 0.0
2018-Apr-22 03:30N 42°21' W 071°03'0 0.0
2018-Apr-22 03:00N 42°21' W 071°03'1 1.1
2018-Apr-22 02:29N 42°22' W 071°02'2 3.5
2018-Apr-22 01:59N 42°21' W 071°01'2 3.2
2018-Apr-22 01:30N 42°20' W 070°59'0 0.9
2018-Apr-22 01:00N 42°20' W 070°58'2 3.3
2018-Apr-22 00:30N 42°20' W 071°00'2 4.3
2018-Apr-22 00:00N 42°21' W 071°03'0 0.1
2018-Apr-21 23:29N 42°21' W 071°03'0 0.0
2018-Apr-21 23:00N 42°21' W 071°03'0 0.0
2018-Apr-21 22:30N 42°21' W 071°03'0 0.0
2018-Apr-21 22:00N 42°21' W 071°03'0 0.0
2018-Apr-21 21:30N 42°21' W 071°03'0 0.2
2018-Apr-21 21:00N 42°21' W 071°03'0 0.2
2018-Apr-21 20:27N 42°21' W 071°03'0 0.0
2018-Apr-21 19:57N 42°21' W 071°03'0 0.0
2018-Apr-21 19:15N 42°21' W 071°03'0 0.0
2018-Apr-21 18:48N 42°21' W 071°03'0 0.0
2018-Apr-21 18:27N 42°21' W 071°03'0 0.0
2018-Apr-21 17:54N 42°21' W 071°03'0 0.0
2018-Apr-21 17:09N 42°21' W 071°03'0 0.1
2018-Apr-21 16:40N 42°21' W 071°03'0 0.1
2018-Apr-21 16:10N 42°21' W 071°03'0 0.0
2018-Apr-21 15:28N 42°21' W 071°03'0 0.0
2018-Apr-21 14:55N 42°21' W 071°03'0 0.0
2018-Apr-21 14:25N 42°21' W 071°03'0 0.0
2018-Apr-21 13:56N 42°21' W 071°03'0 0.0
2018-Apr-21 13:27N 42°21' W 071°03'0 0.0
2018-Apr-21 12:59N 42°21' W 071°03'0 0.0
2018-Apr-21 12:28N 42°21' W 071°03'0 0.0
2018-Apr-21 12:00N 42°21' W 071°03'0 0.0
2018-Apr-21 11:18N 42°21' W 071°03'0 0.0
2018-Apr-21 10:39N 42°21' W 071°03'0 0.0
2018-Apr-21 10:23N 42°21' W 071°03'0 0.0
2018-Apr-21 09:52N 42°21' W 071°03'0 0.0
2018-Apr-21 09:24N 42°21' W 071°03'0 0.1
2018-Apr-21 08:59N 42°21' W 071°03'0 0.1
2018-Apr-21 08:15N 42°21' W 071°03'0 0.0
2018-Apr-21 08:00N 42°21' W 071°03'0 0.3
2018-Apr-21 07:29N 42°21' W 071°03'0 0.3
2018-Apr-21 07:00N 42°21' W 071°03'0 0.0
2018-Apr-21 06:29N 42°21' W 071°03'0 0.0
2018-Apr-21 05:50N 42°21' W 071°03'0 0.0
2018-Apr-21 05:14N 42°21' W 071°03'0 0.0
2018-Apr-21 04:52N 42°21' W 071°03'0 0.0
2018-Apr-21 04:24N 42°21' W 071°03'0 0.0
2018-Apr-21 03:44N 42°21' W 071°03'0 0.0
2018-Apr-21 03:21N 42°21' W 071°03'0 0.0
2018-Apr-21 02:59N 42°21' W 071°03'0 0.0
2018-Apr-21 02:30N 42°21' W 071°03'0 0.0
2018-Apr-21 01:59N 42°21' W 071°03'1 1.6
2018-Apr-21 01:30N 42°22' W 071°03'1 2.3
2018-Apr-21 00:57N 42°21' W 071°02'2 4.4
2018-Apr-21 00:30N 42°20' W 070°60'1 2.9
2018-Apr-21 00:00N 42°20' W 070°58'2 4.7
2018-Apr-20 23:30N 42°21' W 071°01'2 3.3
2018-Apr-20 22:57N 42°21' W 071°03'0 0.0
2018-Apr-20 22:26N 42°21' W 071°03'0 0.0
2018-Apr-20 21:58N 42°21' W 071°03'0 0.0
2018-Apr-20 21:28N 42°21' W 071°03'0 0.0
2018-Apr-20 20:49N 42°21' W 071°03'0 0.0
2018-Apr-20 20:09N 42°21' W 071°03'0 0.0
2018-Apr-20 19:47N 42°21' W 071°03'0 0.0
2018-Apr-20 19:29N 42°21' W 071°03'0 0.0
2018-Apr-20 18:57N 42°21' W 071°03'0 0.0
2018-Apr-20 18:25N 42°21' W 071°03'0 0.0
2018-Apr-20 17:53N 42°21' W 071°03'0 0.2
2018-Apr-20 17:08N 42°21' W 071°03'0 0.2
2018-Apr-20 16:50N 42°21' W 071°03'0 0.2
2018-Apr-20 16:21N 42°21' W 071°03'0 0.0
2018-Apr-20 15:29N 42°21' W 071°03'0 0.0
2018-Apr-20 14:56N 42°21' W 071°03'0 0.0
2018-Apr-20 14:28N 42°21' W 071°03'0 0.0
2018-Apr-20 14:00N 42°21' W 071°03'0 0.0
2018-Apr-20 13:30N 42°21' W 071°03'0 0.0
2018-Apr-20 13:00N 42°21' W 071°03'0 0.0
2018-Apr-20 12:29N 42°21' W 071°03'0 0.0
2018-Apr-20 12:00N 42°21' W 071°03'0 0.0
2018-Apr-20 11:31N 42°21' W 071°03'0 0.0
2018-Apr-20 10:57N 42°21' W 071°03'0 0.0
2018-Apr-20 10:30N 42°21' W 071°03'0 0.0
2018-Apr-20 09:42N 42°21' W 071°03'0 0.0
2018-Apr-20 09:23N 42°21' W 071°03'0 0.0
2018-Apr-20 09:00N 42°21' W 071°03'0 0.0
2018-Apr-20 08:14N 42°21' W 071°03'0 0.1
2018-Apr-20 07:56N 42°21' W 071°03'0 0.0
2018-Apr-20 07:26N 42°21' W 071°03'0 0.0
2018-Apr-20 07:00N 42°21' W 071°03'0 0.0
2018-Apr-20 06:30N 42°21' W 071°03'0 0.0
2018-Apr-20 06:00N 42°21' W 071°03'0 0.0
2018-Apr-20 05:30N 42°21' W 071°03'0 0.0
2018-Apr-20 05:01N 42°21' W 071°03'0 0.0
2018-Apr-20 04:30N 42°21' W 071°03'0 0.0
2018-Apr-20 04:00N 42°21' W 071°03'0 0.0
2018-Apr-20 03:30N 42°21' W 071°03'0 0.0
2018-Apr-20 03:00N 42°21' W 071°03'0 0.0
2018-Apr-20 02:30N 42°21' W 071°03'0 0.0
2018-Apr-20 02:00N 42°21' W 071°03'0 0.0
2018-Apr-20 01:30N 42°21' W 071°03'0 0.0
2018-Apr-20 01:00N 42°21' W 071°03'0 0.2
2018-Apr-20 00:30N 42°21' W 071°03'0 0.2
2018-Apr-20 00:01N 42°21' W 071°03'0 0.0
2018-Apr-19 23:30N 42°21' W 071°03'0 0.0
2018-Apr-19 22:58N 42°21' W 071°03'0 0.0
2018-Apr-19 22:30N 42°21' W 071°03'0 0.0
2018-Apr-19 22:00N 42°21' W 071°03'0 0.0
2018-Apr-19 21:29N 42°21' W 071°03'0 0.1
2018-Apr-19 20:59N 42°21' W 071°03'0 0.1
2018-Apr-19 20:30N 42°21' W 071°03'0 0.0
2018-Apr-19 19:59N 42°21' W 071°03'0 0.0
2018-Apr-19 19:30N 42°21' W 071°03'0 0.0
2018-Apr-19 18:59N 42°21' W 071°03'0 0.0
2018-Apr-19 18:30N 42°21' W 071°03'0 0.0
2018-Apr-19 18:00N 42°21' W 071°03'0 0.0
2018-Apr-19 17:29N 42°21' W 071°03'0 0.2
2018-Apr-19 17:00N 42°21' W 071°03'0 0.2
2018-Apr-19 16:30N 42°21' W 071°03'0 0.0
2018-Apr-19 16:00N 42°21' W 071°03'0 0.0
2018-Apr-19 15:30N 42°21' W 071°03'0 0.0
2018-Apr-19 15:00N 42°21' W 071°03'0 0.0
2018-Apr-19 14:31N 42°21' W 071°03'0 0.0
2018-Apr-19 14:00N 42°21' W 071°03'0 0.0
2018-Apr-19 13:30N 42°21' W 071°03'0 0.0
2018-Apr-19 13:00N 42°21' W 071°03'0 0.0
2018-Apr-19 12:30N 42°21' W 071°03'0 0.0
2018-Apr-19 12:01N 42°21' W 071°03'0 0.0
2018-Apr-19 11:30N 42°21' W 071°03'0 0.0
2018-Apr-19 11:00N 42°21' W 071°03'0 0.0
2018-Apr-19 10:30N 42°21' W 071°03'0 0.0
2018-Apr-19 10:00N 42°21' W 071°03'0 0.0
2018-Apr-19 09:30N 42°21' W 071°03'0 0.0
2018-Apr-19 08:59N 42°21' W 071°03'0 0.1
2018-Apr-19 08:30N 42°21' W 071°03'0 0.1
2018-Apr-19 08:00N 42°21' W 071°03'0 0.3
2018-Apr-19 07:30N 42°21' W 071°03'0 0.3
2018-Apr-19 06:59N 42°21' W 071°03'0 0.0
2018-Apr-19 06:29N 42°21' W 071°03'0 0.0
2018-Apr-19 06:00N 42°21' W 071°03'0 0.0
2018-Apr-19 05:29N 42°21' W 071°03'0 0.0
2018-Apr-19 05:01N 42°21' W 071°03'0 0.0
2018-Apr-19 04:30N 42°21' W 071°03'0 0.0
2018-Apr-19 03:59N 42°21' W 071°03'0 0.0
2018-Apr-19 03:30N 42°21' W 071°03'0 0.0
2018-Apr-19 03:00N 42°21' W 071°03'0 0.0
2018-Apr-19 02:30N 42°21' W 071°03'0 0.0
2018-Apr-19 02:00N 42°21' W 071°03'1 1.8
2018-Apr-19 01:30N 42°22' W 071°03'2 4.0
2018-Apr-19 01:00N 42°21' W 071°01'2 4.0
2018-Apr-19 00:29N 42°20' W 070°59'1 1.3
2018-Apr-19 00:00N 42°20' W 070°58'2 4.4
2018-Apr-18 23:30N 42°21' W 071°01'2 3.6
2018-Apr-18 23:00N 42°21' W 071°03'0 0.0
2018-Apr-18 22:30N 42°21' W 071°03'0 0.0
2018-Apr-18 22:00N 42°21' W 071°03'0 0.0
2018-Apr-18 21:30N 42°21' W 071°03'0 0.1
2018-Apr-18 21:00N 42°21' W 071°03'0 0.1
2018-Apr-18 20:30N 42°21' W 071°03'0 0.0
2018-Apr-18 19:59N 42°21' W 071°03'0 0.0
2018-Apr-18 19:30N 42°21' W 071°03'0 0.0
2018-Apr-18 19:00N 42°21' W 071°03'0 0.0
2018-Apr-18 18:30N 42°21' W 071°03'0 0.0
2018-Apr-18 17:59N 42°21' W 071°03'0 0.0
2018-Apr-18 17:30N 42°21' W 071°03'0 0.2
2018-Apr-18 16:59N 42°21' W 071°03'0 0.2
2018-Apr-18 16:29N 42°21' W 071°03'0 0.0
2018-Apr-18 15:59N 42°21' W 071°03'0 0.0
2018-Apr-18 15:29N 42°21' W 071°03'0 0.0
2018-Apr-18 14:59N 42°21' W 071°03'0 0.0
2018-Apr-18 14:30N 42°21' W 071°03'0 0.0
2018-Apr-18 14:00N 42°21' W 071°03'0 0.0
2018-Apr-18 13:30N 42°21' W 071°03'0 0.0
2018-Apr-18 13:01N 42°21' W 071°03'0 0.0
2018-Apr-18 12:30N 42°21' W 071°03'0 0.0
2018-Apr-18 12:00N 42°21' W 071°03'0 0.0
2018-Apr-18 11:31N 42°21' W 071°03'0 0.0
2018-Apr-18 11:00N 42°21' W 071°03'0 0.0
2018-Apr-18 10:30N 42°21' W 071°03'0 0.0
2018-Apr-18 10:00N 42°21' W 071°03'0 0.0
2018-Apr-18 09:30N 42°21' W 071°03'0 0.1
2018-Apr-18 09:00N 42°21' W 071°03'0 0.0
2018-Apr-18 08:29N 42°21' W 071°03'0 0.0
2018-Apr-18 08:00N 42°21' W 071°03'0 0.0
2018-Apr-18 07:30N 42°21' W 071°03'0 0.0
2018-Apr-18 07:00N 42°21' W 071°03'0 0.0
2018-Apr-18 06:30N 42°21' W 071°03'0 0.0
2018-Apr-18 06:00N 42°21' W 071°03'0 0.0
2018-Apr-18 05:30N 42°21' W 071°03'0 0.0
2018-Apr-18 04:59N 42°21' W 071°03'0 0.0
2018-Apr-18 04:30N 42°21' W 071°03'0 0.0
2018-Apr-18 03:59N 42°21' W 071°03'0 0.0
2018-Apr-18 03:30N 42°21' W 071°03'0 0.0
2018-Apr-18 03:00N 42°21' W 071°03'0 0.0
2018-Apr-18 02:29N 42°21' W 071°03'0 0.0
2018-Apr-18 02:00N 42°21' W 071°03'1 3.0
2018-Apr-18 01:30N 42°23' W 071°03'2 3.3
2018-Apr-18 01:00N 42°21' W 071°02'2 3.9
2018-Apr-18 00:30N 42°20' W 070°60'3 5.4
2018-Apr-18 00:00N 42°22' W 071°03'1 2.5
2018-Apr-17 23:31N 42°23' W 071°03'1 2.9
2018-Apr-17 23:00N 42°21' W 071°03'0 0.0
2018-Apr-17 22:30N 42°21' W 071°03'0 0.0
2018-Apr-17 22:00N 42°21' W 071°03'0 0.0
2018-Apr-17 21:30N 42°21' W 071°03'0 0.0
2018-Apr-17 21:00N 42°21' W 071°03'0 0.0
2018-Apr-17 20:30N 42°21' W 071°03'0 0.0
2018-Apr-17 20:00N 42°21' W 071°03'0 0.0
2018-Apr-17 19:29N 42°21' W 071°03'0 0.0
2018-Apr-17 19:01N 42°21' W 071°03'0 0.0
2018-Apr-17 18:30N 42°21' W 071°03'0 0.0
2018-Apr-17 17:59N 42°21' W 071°03'0 0.0
2018-Apr-17 17:30N 42°21' W 071°03'0 0.1
2018-Apr-17 17:01N 42°21' W 071°03'0 0.1
2018-Apr-17 16:29N 42°21' W 071°03'0 0.0
2018-Apr-17 15:59N 42°21' W 071°03'0 0.0
2018-Apr-17 15:30N 42°21' W 071°03'0 0.0
2018-Apr-17 15:00N 42°21' W 071°03'0 0.0
2018-Apr-17 14:30N 42°21' W 071°03'0 0.2
2018-Apr-17 14:00N 42°21' W 071°03'0 0.2
2018-Apr-17 13:30N 42°21' W 071°03'0 0.2
2018-Apr-17 13:00N 42°21' W 071°03'0 0.2
2018-Apr-17 12:30N 42°21' W 071°03'0 0.0
2018-Apr-17 12:00N 42°21' W 071°03'0 0.0
2018-Apr-17 11:30N 42°21' W 071°03'0 0.0
2018-Apr-17 11:00N 42°21' W 071°03'0 0.0
2018-Apr-17 10:30N 42°21' W 071°03'0 0.0
2018-Apr-17 10:00N 42°21' W 071°03'0 0.0
2018-Apr-17 09:30N 42°21' W 071°03'0 0.2
2018-Apr-17 09:00N 42°21' W 071°03'0 0.2
2018-Apr-17 08:29N 42°21' W 071°03'0 0.0
2018-Apr-17 07:59N 42°21' W 071°03'0 0.0
2018-Apr-17 07:30N 42°21' W 071°03'0 0.0
2018-Apr-17 07:00N 42°21' W 071°03'0 0.0
2018-Apr-17 06:30N 42°21' W 071°03'0 0.0
2018-Apr-17 06:00N 42°21' W 071°03'0 0.0
2018-Apr-17 05:28N 42°21' W 071°03'0 0.0
2018-Apr-17 04:59N 42°21' W 071°03'0 0.0
2018-Apr-17 04:30N 42°21' W 071°03'0 0.0
2018-Apr-17 04:00N 42°21' W 071°03'0 0.0
2018-Apr-17 03:30N 42°21' W 071°03'0 0.0
2018-Apr-17 03:01N 42°21' W 071°03'0 0.0
2018-Apr-17 02:30N 42°21' W 071°03'0 0.0
2018-Apr-17 02:00N 42°21' W 071°03'0 0.0
2018-Apr-17 01:31N 42°21' W 071°03'0 0.0
2018-Apr-17 01:00N 42°21' W 071°03'0 0.0
2018-Apr-17 00:30N 42°21' W 071°03'0 0.0
2018-Apr-17 00:00N 42°21' W 071°03'0 0.0
2018-Apr-16 23:30N 42°21' W 071°03'0 0.0
2018-Apr-16 23:00N 42°21' W 071°03'0 0.0
2018-Apr-16 22:30N 42°21' W 071°03'0 0.0
2018-Apr-16 22:00N 42°21' W 071°03'0 0.0
2018-Apr-16 21:30N 42°21' W 071°03'0 0.0
2018-Apr-16 21:00N 42°21' W 071°03'0 0.0
2018-Apr-16 20:30N 42°21' W 071°03'0 0.0
2018-Apr-16 20:00N 42°21' W 071°03'0 0.0
2018-Apr-16 19:30N 42°21' W 071°03'0 0.0
2018-Apr-16 19:00N 42°21' W 071°03'0 0.0
2018-Apr-16 18:30N 42°21' W 071°03'0 0.0
2018-Apr-16 18:00N 42°21' W 071°03'0 0.0
2018-Apr-16 17:30N 42°21' W 071°03'0 0.0
2018-Apr-16 17:01N 42°21' W 071°03'0 0.0
2018-Apr-16 16:30N 42°21' W 071°03'0 0.0
2018-Apr-16 16:00N 42°21' W 071°03'0 0.0
2018-Apr-16 15:30N 42°21' W 071°03'0 0.0
2018-Apr-16 15:01N 42°21' W 071°03'0 0.0
2018-Apr-16 14:30N 42°21' W 071°03'0 0.0
2018-Apr-16 14:00N 42°21' W 071°03'0 0.0
2018-Apr-16 13:30N 42°21' W 071°03'0 0.0
2018-Apr-16 13:00N 42°21' W 071°03'0 0.0
2018-Apr-16 12:30N 42°21' W 071°03'0 0.0
2018-Apr-16 12:00N 42°21' W 071°03'0 0.0
2018-Apr-16 11:30N 42°21' W 071°03'0 0.0
2018-Apr-16 11:00N 42°21' W 071°03'0 0.0
2018-Apr-16 10:30N 42°21' W 071°03'0 0.0
2018-Apr-16 10:00N 42°21' W 071°03'0 0.0
2018-Apr-16 09:30N 42°21' W 071°03'0 0.0
2018-Apr-16 09:00N 42°21' W 071°03'0 0.0
2018-Apr-16 08:30N 42°21' W 071°03'0 0.0
2018-Apr-16 08:00N 42°21' W 071°03'0 0.0
2018-Apr-16 07:30N 42°21' W 071°03'0 0.0
2018-Apr-16 07:01N 42°21' W 071°03'0 0.0
2018-Apr-16 06:31N 42°21' W 071°03'0 0.0
2018-Apr-16 06:00N 42°21' W 071°03'0 0.0
2018-Apr-16 05:30N 42°21' W 071°03'0 0.0
2018-Apr-16 05:00N 42°21' W 071°03'0 0.0
2018-Apr-16 04:30N 42°21' W 071°03'0 0.0
2018-Apr-16 04:00N 42°21' W 071°03'0 0.0
2018-Apr-16 03:30N 42°21' W 071°03'0 0.0
2018-Apr-16 03:00N 42°21' W 071°03'0 0.0
2018-Apr-16 02:30N 42°21' W 071°03'0 0.0
2018-Apr-16 02:00N 42°21' W 071°03'0 0.0
2018-Apr-16 01:30N 42°21' W 071°03'0 0.0
2018-Apr-16 01:00N 42°21' W 071°03'0 0.0
2018-Apr-16 00:30N 42°21' W 071°03'0 0.0
2018-Apr-16 00:01N 42°21' W 071°03'0 0.0
2018-Apr-15 23:30N 42°21' W 071°03'0 0.0
2018-Apr-15 23:00N 42°21' W 071°03'0 0.0
2018-Apr-15 22:30N 42°21' W 071°03'0 0.0
2018-Apr-15 22:01N 42°21' W 071°03'0 0.0
2018-Apr-15 21:30N 42°21' W 071°03'0 0.0
2018-Apr-15 21:00N 42°21' W 071°03'0 0.0
2018-Apr-15 20:30N 42°21' W 071°03'0 0.0
2018-Apr-15 20:00N 42°21' W 071°03'0 0.0
2018-Apr-15 19:30N 42°21' W 071°03'0 0.0
2018-Apr-15 19:00N 42°21' W 071°03'0 0.0
2018-Apr-15 18:30N 42°21' W 071°03'0 0.0
2018-Apr-15 18:00N 42°21' W 071°03'0 0.0
2018-Apr-15 17:30N 42°21' W 071°03'0 0.0
2018-Apr-15 17:00N 42°21' W 071°03'0 0.0
2018-Apr-15 16:30N 42°21' W 071°03'0 0.0
2018-Apr-15 16:00N 42°21' W 071°03'0 0.0
2018-Apr-15 15:30N 42°21' W 071°03'0 0.0
2018-Apr-15 15:01N 42°21' W 071°03'0 0.0
2018-Apr-15 14:31N 42°21' W 071°03'0 0.0
2018-Apr-15 14:00N 42°21' W 071°03'0 0.0
2018-Apr-15 13:30N 42°21' W 071°03'0 0.0
2018-Apr-15 13:00N 42°21' W 071°03'0 0.0
2018-Apr-15 12:30N 42°21' W 071°03'0 0.0
2018-Apr-15 12:01N 42°21' W 071°03'0 0.0
2018-Apr-15 11:30N 42°21' W 071°03'0 0.0
2018-Apr-15 11:01N 42°21' W 071°03'0 0.0
2018-Apr-15 10:31N 42°21' W 071°03'0 0.0
2018-Apr-15 10:01N 42°21' W 071°03'0 0.0
2018-Apr-15 09:30N 42°21' W 071°03'0 0.1
2018-Apr-15 09:00N 42°21' W 071°03'0 0.1
2018-Apr-15 08:30N 42°21' W 071°03'0 0.0
2018-Apr-15 08:00N 42°21' W 071°03'0 0.0
2018-Apr-15 07:30N 42°21' W 071°03'0 0.0
2018-Apr-15 07:01N 42°21' W 071°03'0 0.0
2018-Apr-15 06:30N 42°21' W 071°03'0 0.0
2018-Apr-15 06:00N 42°21' W 071°03'0 0.0
2018-Apr-15 05:30N 42°21' W 071°03'0 0.0
2018-Apr-15 05:00N 42°21' W 071°03'0 0.0
2018-Apr-15 04:31N 42°21' W 071°03'0 0.0
2018-Apr-15 04:00N 42°21' W 071°03'0 0.0
2018-Apr-15 03:30N 42°21' W 071°03'0 0.0
2018-Apr-15 03:00N 42°21' W 071°03'0 0.0
2018-Apr-15 02:30N 42°21' W 071°03'0 0.0
2018-Apr-15 02:00N 42°21' W 071°03'0 0.0
2018-Apr-15 01:30N 42°21' W 071°03'0 0.2
2018-Apr-15 01:00N 42°21' W 071°03'0 0.2
2018-Apr-15 00:30N 42°21' W 071°03'0 0.0
2018-Apr-15 00:00N 42°21' W 071°03'0 0.0
2018-Apr-14 23:30N 42°21' W 071°03'0 0.0
2018-Apr-14 23:01N 42°21' W 071°03'0 0.0
2018-Apr-14 22:31N 42°21' W 071°03'0 0.0
2018-Apr-14 22:00N 42°21' W 071°03'0 0.0
2018-Apr-14 21:30N 42°21' W 071°03'0 0.0
2018-Apr-14 21:00N 42°21' W 071°03'0 0.0
2018-Apr-14 20:30N 42°21' W 071°03'0 0.0
2018-Apr-14 20:00N 42°21' W 071°03'2 3.7
2018-Apr-14 19:30N 42°21' W 071°01'1 1.0
2018-Apr-14 19:00N 42°20' W 071°00'3 5.6
2018-Apr-14 18:31N 42°22' W 071°03'1 1.6
2018-Apr-14 18:00N 42°21' W 071°03'0 0.0
2018-Apr-14 17:31N 42°21' W 071°03'0 0.0
2018-Apr-14 17:00N 42°21' W 071°03'0 0.0
2018-Apr-14 16:31N 42°21' W 071°03'0 0.0
2018-Apr-14 16:00N 42°21' W 071°03'0 0.0
2018-Apr-14 15:30N 42°21' W 071°03'0 0.0
2018-Apr-14 15:00N 42°21' W 071°03'0 0.0
2018-Apr-14 14:30N 42°21' W 071°03'0 0.0
2018-Apr-14 14:00N 42°21' W 071°03'0 0.0
2018-Apr-14 13:30N 42°21' W 071°03'0 0.0
2018-Apr-14 13:00N 42°21' W 071°03'0 0.0
2018-Apr-14 12:30N 42°21' W 071°03'0 0.0
2018-Apr-14 12:00N 42°21' W 071°03'0 0.0
2018-Apr-14 11:31N 42°21' W 071°03'0 0.0
2018-Apr-14 11:00N 42°21' W 071°03'0 0.0
2018-Apr-14 10:30N 42°21' W 071°03'0 0.2
2018-Apr-14 10:00N 42°21' W 071°03'0 0.2
2018-Apr-14 09:30N 42°21' W 071°03'0 0.1
2018-Apr-14 09:00N 42°21' W 071°03'0 0.1
2018-Apr-14 08:31N 42°21' W 071°03'0 0.3
2018-Apr-14 08:01N 42°21' W 071°03'0 0.3
2018-Apr-14 07:30N 42°21' W 071°03'0 0.0
2018-Apr-14 07:00N 42°21' W 071°03'0 0.0
2018-Apr-14 06:30N 42°21' W 071°03'0 0.0
2018-Apr-14 06:00N 42°21' W 071°03'0 0.0
2018-Apr-14 05:30N 42°21' W 071°03'0 0.0
2018-Apr-14 05:00N 42°21' W 071°03'0 0.0
2018-Apr-14 04:31N 42°21' W 071°03'0 0.0
2018-Apr-14 04:01N 42°21' W 071°03'0 0.0
2018-Apr-14 03:30N 42°21' W 071°03'0 0.0
2018-Apr-14 03:00N 42°21' W 071°03'0 0.0
2018-Apr-14 02:30N 42°21' W 071°03'0 0.0
2018-Apr-14 02:00N 42°21' W 071°03'1 2.4
2018-Apr-14 01:30N 42°21' W 071°01'1 1.6
2018-Apr-14 01:00N 42°21' W 071°01'1 1.3
2018-Apr-14 00:30N 42°20' W 071°00'2 3.7
2018-Apr-14 00:00N 42°21' W 071°02'1 2.4
2018-Apr-13 23:30N 42°22' W 071°03'1 1.6
2018-Apr-13 23:00N 42°21' W 071°03'0 0.0
2018-Apr-13 22:30N 42°21' W 071°03'0 0.0
2018-Apr-13 22:00N 42°21' W 071°03'0 0.2
2018-Apr-13 21:31N 42°21' W 071°03'0 0.2
2018-Apr-13 21:00N 42°21' W 071°03'0 0.0
2018-Apr-13 20:30N 42°21' W 071°03'0 0.0
2018-Apr-13 20:00N 42°21' W 071°03'0 0.0
2018-Apr-13 19:30N 42°21' W 071°03'0 0.0
2018-Apr-13 19:00N 42°21' W 071°03'0 0.0
2018-Apr-13 18:30N 42°21' W 071°03'0 0.0
2018-Apr-13 18:01N 42°21' W 071°03'0 0.0
2018-Apr-13 17:30N 42°21' W 071°03'0 0.0
2018-Apr-13 17:00N 42°21' W 071°03'0 0.0
2018-Apr-13 16:00N 42°21' W 071°03'0 0.0
2018-Apr-13 15:30N 42°21' W 071°03'0 0.0
2018-Apr-13 15:00N 42°21' W 071°03'0 0.0
2018-Apr-13 14:30N 42°21' W 071°03'0 0.0
2018-Apr-13 14:00N 42°21' W 071°03'0 0.0
2018-Apr-13 13:30N 42°21' W 071°03'0 0.0
2018-Apr-13 13:00N 42°21' W 071°03'0 0.0
2018-Apr-13 12:30N 42°21' W 071°03'0 0.0
2018-Apr-13 12:00N 42°21' W 071°03'0 0.0
2018-Apr-13 11:30N 42°21' W 071°03'0 0.0
2018-Apr-13 11:00N 42°21' W 071°03'0 0.0
2018-Apr-13 10:30N 42°21' W 071°03'0 0.0
2018-Apr-13 10:00N 42°21' W 071°03'0 0.0
2018-Apr-13 09:30N 42°21' W 071°03'0 0.2
2018-Apr-13 09:00N 42°21' W 071°03'0 0.2
2018-Apr-13 08:30N 42°21' W 071°03'0 0.3
2018-Apr-13 08:00N 42°21' W 071°03'0 0.3
2018-Apr-13 07:30N 42°21' W 071°03'0 0.0
2018-Apr-13 07:00N 42°21' W 071°03'0 0.0
2018-Apr-13 06:30N 42°21' W 071°03'0 0.0
2018-Apr-13 06:00N 42°21' W 071°03'0 0.0
2018-Apr-13 05:30N 42°21' W 071°03'0 0.0
2018-Apr-13 05:00N 42°21' W 071°03'0 0.0
2018-Apr-13 04:30N 42°21' W 071°03'0 0.0
2018-Apr-13 04:00N 42°21' W 071°03'  
Track history (hours):
 
Tides and Currents Weather Stations Pressure Air Temp Water Temp Dewpoint Dewpoint Depression Visibility Wind Speed Wind Dir Waves Ship Positions

Lady Windridge

Owner: DEEP SEA CHARTERS DBA WINDRIDGE YACHTS, FORT LAUDERDALE, FL. More information available from US FCC via Universal Licensing System and Coast Guard Vessel Documentation Center.

Last reported at 2018-Apr-23 04:00 UTC. Time now 2018-Apr-23 04:00 UTC.
Position N 42°21' W 071°03'.

Length 54 m; draft 2.9 m.

Type: Passenger vessel. MMSI: 338079044.

Date/timePositionNaut miles runAvg speedWind from/ knotsBaromVisibWave heightAir tempDewpointWater temp
2018-Apr-23 04:00N 42°21' W 071°03'0 0.0
2018-Apr-23 03:31N 42°21' W 071°03'0 0.0
2018-Apr-23 03:00N 42°21' W 071°03'0 0.0
2018-Apr-23 02:31N 42°21' W 071°03'0 0.0
2018-Apr-23 02:00N 42°21' W 071°03'0 0.0
2018-Apr-23 01:31N 42°21' W 071°03'0 0.0
2018-Apr-23 01:01N 42°21' W 071°03'0 0.0
2018-Apr-23 00:30N 42°21' W 071°03'0 0.0
2018-Apr-23 00:01N 42°21' W 071°03'0 0.0
2018-Apr-22 23:30N 42°21' W 071°03'0 0.0
2018-Apr-22 23:00N 42°21' W 071°03'0 0.0
2018-Apr-22 22:31N 42°21' W 071°03'0 0.0
2018-Apr-22 22:01N 42°21' W 071°03'0 0.3
2018-Apr-22 21:30N 42°21' W 071°03'0 0.3
2018-Apr-22 21:00N 42°21' W 071°03'0 0.0
2018-Apr-22 20:30N 42°21' W 071°03'0 0.0
2018-Apr-22 20:00N 42°21' W 071°03'0 0.0
2018-Apr-22 19:30N 42°21' W 071°03'0 0.0
2018-Apr-22 19:00N 42°21' W 071°03'1 1.3
2018-Apr-22 18:30N 42°22' W 071°03'2 4.0
2018-Apr-22 18:00N 42°21' W 071°01'0 0.5
2018-Apr-22 17:31N 42°20' W 071°01'2 3.9
2018-Apr-22 17:00N 42°21' W 071°03'0 0.0
2018-Apr-22 16:30N 42°21' W 071°03'0 0.0
2018-Apr-22 16:00N 42°21' W 071°03'0 0.0
2018-Apr-22 15:31N 42°21' W 071°03'0 0.0
2018-Apr-22 15:00N 42°21' W 071°03'0 0.0
2018-Apr-22 14:30N 42°21' W 071°03'0 0.0
2018-Apr-22 14:01N 42°21' W 071°03'0 0.0
2018-Apr-22 13:30N 42°21' W 071°03'0 0.0
2018-Apr-22 13:00N 42°21' W 071°03'0 0.0
2018-Apr-22 12:30N 42°21' W 071°03'0 0.0
2018-Apr-22 12:00N 42°21' W 071°03'0 0.0
2018-Apr-22 11:30N 42°21' W 071°03'0 0.0
2018-Apr-22 11:00N 42°21' W 071°03'0 0.0
2018-Apr-22 10:30N 42°21' W 071°03'0 0.0
2018-Apr-22 10:01N 42°21' W 071°03'0 0.0
2018-Apr-22 09:30N 42°21' W 071°03'0 0.0
2018-Apr-22 09:01N 42°21' W 071°03'0 0.1
2018-Apr-22 08:30N 42°21' W 071°03'0 0.2
2018-Apr-22 08:01N 42°21' W 071°03'0 0.0
2018-Apr-22 07:31N 42°21' W 071°03'0 0.0
2018-Apr-22 07:00N 42°21' W 071°03'0 0.0
2018-Apr-22 06:30N 42°21' W 071°03'0 0.0
2018-Apr-22 05:59N 42°21' W 071°03'0 0.0
2018-Apr-22 05:22N 42°21' W 071°03'0 0.0
2018-Apr-22 04:53N 42°21' W 071°03'0 0.0
2018-Apr-22 04:27N 42°21' W 071°03'0 0.0
2018-Apr-22 04:00N 42°21' W 071°03'0 0.0
2018-Apr-22 03:30N 42°21' W 071°03'0 0.0
2018-Apr-22 03:00N 42°21' W 071°03'1 1.1
2018-Apr-22 02:29N 42°22' W 071°02'2 3.5
2018-Apr-22 01:59N 42°21' W 071°01'2 3.2
2018-Apr-22 01:30N 42°20' W 070°59'0 0.9
2018-Apr-22 01:00N 42°20' W 070°58'2 3.3
2018-Apr-22 00:30N 42°20' W 071°00'2 4.3
2018-Apr-22 00:00N 42°21' W 071°03'0 0.1
2018-Apr-21 23:29N 42°21' W 071°03'0 0.0
2018-Apr-21 23:00N 42°21' W 071°03'0 0.0
2018-Apr-21 22:30N 42°21' W 071°03'0 0.0
2018-Apr-21 22:00N 42°21' W 071°03'0 0.0
2018-Apr-21 21:30N 42°21' W 071°03'0 0.2
2018-Apr-21 21:00N 42°21' W 071°03'0 0.2
2018-Apr-21 20:27N 42°21' W 071°03'0 0.0
2018-Apr-21 19:57N 42°21' W 071°03'0 0.0
2018-Apr-21 19:15N 42°21' W 071°03'0 0.0
2018-Apr-21 18:48N 42°21' W 071°03'0 0.0
2018-Apr-21 18:27N 42°21' W 071°03'0 0.0
2018-Apr-21 17:54N 42°21' W 071°03'0 0.0
2018-Apr-21 17:09N 42°21' W 071°03'0 0.1
2018-Apr-21 16:40N 42°21' W 071°03'0 0.1
2018-Apr-21 16:10N 42°21' W 071°03'0 0.0
2018-Apr-21 15:28N 42°21' W 071°03'0 0.0
2018-Apr-21 14:55N 42°21' W 071°03'0 0.0
2018-Apr-21 14:25N 42°21' W 071°03'0 0.0
2018-Apr-21 13:56N 42°21' W 071°03'0 0.0
2018-Apr-21 13:27N 42°21' W 071°03'0 0.0
2018-Apr-21 12:59N 42°21' W 071°03'0 0.0
2018-Apr-21 12:28N 42°21' W 071°03'0 0.0
2018-Apr-21 12:00N 42°21' W 071°03'0 0.0
2018-Apr-21 11:18N 42°21' W 071°03'0 0.0
2018-Apr-21 10:39N 42°21' W 071°03'0 0.0
2018-Apr-21 10:23N 42°21' W 071°03'0 0.0
2018-Apr-21 09:52N 42°21' W 071°03'0 0.0
2018-Apr-21 09:24N 42°21' W 071°03'0 0.1
2018-Apr-21 08:59N 42°21' W 071°03'0 0.1
2018-Apr-21 08:15N 42°21' W 071°03'0 0.0
2018-Apr-21 08:00N 42°21' W 071°03'0 0.3
2018-Apr-21 07:29N 42°21' W 071°03'0 0.3
2018-Apr-21 07:00N 42°21' W 071°03'0 0.0
2018-Apr-21 06:29N 42°21' W 071°03'0 0.0
2018-Apr-21 05:50N 42°21' W 071°03'0 0.0
2018-Apr-21 05:14N 42°21' W 071°03'0 0.0
2018-Apr-21 04:52N 42°21' W 071°03'0 0.0
2018-Apr-21 04:24N 42°21' W 071°03'0 0.0
2018-Apr-21 03:44N 42°21' W 071°03'0 0.0
2018-Apr-21 03:21N 42°21' W 071°03'0 0.0
2018-Apr-21 02:59N 42°21' W 071°03'0 0.0
2018-Apr-21 02:30N 42°21' W 071°03'0 0.0
2018-Apr-21 01:59N 42°21' W 071°03'1 1.6
2018-Apr-21 01:30N 42°22' W 071°03'1 2.3
2018-Apr-21 00:57N 42°21' W 071°02'2 4.4
2018-Apr-21 00:30N 42°20' W 070°60'1 2.9
2018-Apr-21 00:00N 42°20' W 070°58'2 4.7
2018-Apr-20 23:30N 42°21' W 071°01'2 3.3
2018-Apr-20 22:57N 42°21' W 071°03'0 0.0
2018-Apr-20 22:26N 42°21' W 071°03'0 0.0
2018-Apr-20 21:58N 42°21' W 071°03'0 0.0
2018-Apr-20 21:28N 42°21' W 071°03'0 0.0
2018-Apr-20 20:49N 42°21' W 071°03'0 0.0
2018-Apr-20 20:09N 42°21' W 071°03'0 0.0
2018-Apr-20 19:47N 42°21' W 071°03'0 0.0
2018-Apr-20 19:29N 42°21' W 071°03'0 0.0
2018-Apr-20 18:57N 42°21' W 071°03'0 0.0
2018-Apr-20 18:25N 42°21' W 071°03'0 0.0
2018-Apr-20 17:53N 42°21' W 071°03'0 0.2
2018-Apr-20 17:08N 42°21' W 071°03'0 0.2
2018-Apr-20 16:50N 42°21' W 071°03'0 0.2
2018-Apr-20 16:21N 42°21' W 071°03'0 0.0
2018-Apr-20 15:29N 42°21' W 071°03'0 0.0
2018-Apr-20 14:56N 42°21' W 071°03'0 0.0
2018-Apr-20 14:28N 42°21' W 071°03'0 0.0
2018-Apr-20 14:00N 42°21' W 071°03'0 0.0
2018-Apr-20 13:30N 42°21' W 071°03'0 0.0
2018-Apr-20 13:00N 42°21' W 071°03'0 0.0
2018-Apr-20 12:29N 42°21' W 071°03'0 0.0
2018-Apr-20 12:00N 42°21' W 071°03'0 0.0
2018-Apr-20 11:31N 42°21' W 071°03'0 0.0
2018-Apr-20 10:57N 42°21' W 071°03'0 0.0
2018-Apr-20 10:30N 42°21' W 071°03'0 0.0
2018-Apr-20 09:42N 42°21' W 071°03'0 0.0
2018-Apr-20 09:23N 42°21' W 071°03'0 0.0
2018-Apr-20 09:00N 42°21' W 071°03'0 0.0
2018-Apr-20 08:14N 42°21' W 071°03'0 0.1
2018-Apr-20 07:56N 42°21' W 071°03'0 0.0
2018-Apr-20 07:26N 42°21' W 071°03'0 0.0
2018-Apr-20 07:00N 42°21' W 071°03'0 0.0
2018-Apr-20 06:30N 42°21' W 071°03'0 0.0
2018-Apr-20 06:00N 42°21' W 071°03'0 0.0
2018-Apr-20 05:30N 42°21' W 071°03'0 0.0
2018-Apr-20 05:01N 42°21' W 071°03'0 0.0
2018-Apr-20 04:30N 42°21' W 071°03'0 0.0
2018-Apr-20 04:00N 42°21' W 071°03'0 0.0
2018-Apr-20 03:30N 42°21' W 071°03'0 0.0
2018-Apr-20 03:00N 42°21' W 071°03'0 0.0
2018-Apr-20 02:30N 42°21' W 071°03'0 0.0
2018-Apr-20 02:00N 42°21' W 071°03'0 0.0
2018-Apr-20 01:30N 42°21' W 071°03'0 0.0
2018-Apr-20 01:00N 42°21' W 071°03'0 0.2
2018-Apr-20 00:30N 42°21' W 071°03'0 0.2
2018-Apr-20 00:01N 42°21' W 071°03'0 0.0
2018-Apr-19 23:30N 42°21' W 071°03'0 0.0
2018-Apr-19 22:58N 42°21' W 071°03'0 0.0
2018-Apr-19 22:30N 42°21' W 071°03'0 0.0
2018-Apr-19 22:00N 42°21' W 071°03'0 0.0
2018-Apr-19 21:29N 42°21' W 071°03'0 0.1
2018-Apr-19 20:59N 42°21' W 071°03'0 0.1
2018-Apr-19 20:30N 42°21' W 071°03'0 0.0
2018-Apr-19 19:59N 42°21' W 071°03'0 0.0
2018-Apr-19 19:30N 42°21' W 071°03'0 0.0
2018-Apr-19 18:59N 42°21' W 071°03'0 0.0
2018-Apr-19 18:30N 42°21' W 071°03'0 0.0
2018-Apr-19 18:00N 42°21' W 071°03'0 0.0
2018-Apr-19 17:29N 42°21' W 071°03'0 0.2
2018-Apr-19 17:00N 42°21' W 071°03'0 0.2
2018-Apr-19 16:30N 42°21' W 071°03'0 0.0
2018-Apr-19 16:00N 42°21' W 071°03'0 0.0
2018-Apr-19 15:30N 42°21' W 071°03'0 0.0
2018-Apr-19 15:00N 42°21' W 071°03'0 0.0
2018-Apr-19 14:31N 42°21' W 071°03'0 0.0
2018-Apr-19 14:00N 42°21' W 071°03'0 0.0
2018-Apr-19 13:30N 42°21' W 071°03'0 0.0
2018-Apr-19 13:00N 42°21' W 071°03'0 0.0
2018-Apr-19 12:30N 42°21' W 071°03'0 0.0
2018-Apr-19 12:01N 42°21' W 071°03'0 0.0
2018-Apr-19 11:30N 42°21' W 071°03'0 0.0
2018-Apr-19 11:00N 42°21' W 071°03'0 0.0
2018-Apr-19 10:30N 42°21' W 071°03'0 0.0
2018-Apr-19 10:00N 42°21' W 071°03'0 0.0
2018-Apr-19 09:30N 42°21' W 071°03'0 0.0
2018-Apr-19 08:59N 42°21' W 071°03'0 0.1
2018-Apr-19 08:30N 42°21' W 071°03'0 0.1
2018-Apr-19 08:00N 42°21' W 071°03'0 0.3
2018-Apr-19 07:30N 42°21' W 071°03'0 0.3
2018-Apr-19 06:59N 42°21' W 071°03'0 0.0
2018-Apr-19 06:29N 42°21' W 071°03'0 0.0
2018-Apr-19 06:00N 42°21' W 071°03'0 0.0
2018-Apr-19 05:29N 42°21' W 071°03'0 0.0
2018-Apr-19 05:01N 42°21' W 071°03'0 0.0
2018-Apr-19 04:30N 42°21' W 071°03'0 0.0
2018-Apr-19 03:59N 42°21' W 071°03'0 0.0
2018-Apr-19 03:30N 42°21' W 071°03'0 0.0
2018-Apr-19 03:00N 42°21' W 071°03'0 0.0
2018-Apr-19 02:30N 42°21' W 071°03'0 0.0
2018-Apr-19 02:00N 42°21' W 071°03'1 1.8
2018-Apr-19 01:30N 42°22' W 071°03'2 4.0
2018-Apr-19 01:00N 42°21' W 071°01'2 4.0
2018-Apr-19 00:29N 42°20' W 070°59'1 1.3
2018-Apr-19 00:00N 42°20' W 070°58'2 4.4
2018-Apr-18 23:30N 42°21' W 071°01'2 3.6
2018-Apr-18 23:00N 42°21' W 071°03'0 0.0
2018-Apr-18 22:30N 42°21' W 071°03'0 0.0
2018-Apr-18 22:00N 42°21' W 071°03'0 0.0
2018-Apr-18 21:30N 42°21' W 071°03'0 0.1
2018-Apr-18 21:00N 42°21' W 071°03'0 0.1
2018-Apr-18 20:30N 42°21' W 071°03'0 0.0
2018-Apr-18 19:59N 42°21' W 071°03'0 0.0
2018-Apr-18 19:30N 42°21' W 071°03'0 0.0
2018-Apr-18 19:00N 42°21' W 071°03'0 0.0
2018-Apr-18 18:30N 42°21' W 071°03'0 0.0
2018-Apr-18 17:59N 42°21' W 071°03'0 0.0
2018-Apr-18 17:30N 42°21' W 071°03'0 0.2
2018-Apr-18 16:59N 42°21' W 071°03'0 0.2
2018-Apr-18 16:29N 42°21' W 071°03'0 0.0
2018-Apr-18 15:59N 42°21' W 071°03'0 0.0
2018-Apr-18 15:29N 42°21' W 071°03'0 0.0
2018-Apr-18 14:59N 42°21' W 071°03'0 0.0
2018-Apr-18 14:30N 42°21' W 071°03'0 0.0
2018-Apr-18 14:00N 42°21' W 071°03'0 0.0
2018-Apr-18 13:30N 42°21' W 071°03'0 0.0
2018-Apr-18 13:01N 42°21' W 071°03'0 0.0
2018-Apr-18 12:30N 42°21' W 071°03'0 0.0
2018-Apr-18 12:00N 42°21' W 071°03'0 0.0
2018-Apr-18 11:31N 42°21' W 071°03'0 0.0
2018-Apr-18 11:00N 42°21' W 071°03'0 0.0
2018-Apr-18 10:30N 42°21' W 071°03'0 0.0
2018-Apr-18 10:00N 42°21' W 071°03'0 0.0
2018-Apr-18 09:30N 42°21' W 071°03'0 0.1
2018-Apr-18 09:00N 42°21' W 071°03'0 0.0
2018-Apr-18 08:29N 42°21' W 071°03'0 0.0
2018-Apr-18 08:00N 42°21' W 071°03'0 0.0
2018-Apr-18 07:30N 42°21' W 071°03'0 0.0
2018-Apr-18 07:00N 42°21' W 071°03'0 0.0
2018-Apr-18 06:30N 42°21' W 071°03'0 0.0
2018-Apr-18 06:00N 42°21' W 071°03'0 0.0
2018-Apr-18 05:30N 42°21' W 071°03'0 0.0
2018-Apr-18 04:59N 42°21' W 071°03'0 0.0
2018-Apr-18 04:30N 42°21' W 071°03'0 0.0
2018-Apr-18 03:59N 42°21' W 071°03'0 0.0
2018-Apr-18 03:30N 42°21' W 071°03'0 0.0
2018-Apr-18 03:00N 42°21' W 071°03'0 0.0
2018-Apr-18 02:29N 42°21' W 071°03'0 0.0
2018-Apr-18 02:00N 42°21' W 071°03'1 3.0
2018-Apr-18 01:30N 42°23' W 071°03'2 3.3
2018-Apr-18 01:00N 42°21' W 071°02'2 3.9
2018-Apr-18 00:30N 42°20' W 070°60'3 5.4
2018-Apr-18 00:00N 42°22' W 071°03'1 2.5
2018-Apr-17 23:31N 42°23' W 071°03'1 2.9
2018-Apr-17 23:00N 42°21' W 071°03'0 0.0
2018-Apr-17 22:30N 42°21' W 071°03'0 0.0
2018-Apr-17 22:00N 42°21' W 071°03'0 0.0
2018-Apr-17 21:30N 42°21' W 071°03'0 0.0
2018-Apr-17 21:00N 42°21' W 071°03'0 0.0
2018-Apr-17 20:30N 42°21' W 071°03'0 0.0
2018-Apr-17 20:00N 42°21' W 071°03'0 0.0
2018-Apr-17 19:29N 42°21' W 071°03'0 0.0
2018-Apr-17 19:01N 42°21' W 071°03'0 0.0
2018-Apr-17 18:30N 42°21' W 071°03'0 0.0
2018-Apr-17 17:59N 42°21' W 071°03'0 0.0
2018-Apr-17 17:30N 42°21' W 071°03'0 0.1
2018-Apr-17 17:01N 42°21' W 071°03'0 0.1
2018-Apr-17 16:29N 42°21' W 071°03'0 0.0
2018-Apr-17 15:59N 42°21' W 071°03'0 0.0
2018-Apr-17 15:30N 42°21' W 071°03'0 0.0
2018-Apr-17 15:00N 42°21' W 071°03'0 0.0
2018-Apr-17 14:30N 42°21' W 071°03'0 0.2
2018-Apr-17 14:00N 42°21' W 071°03'0 0.2
2018-Apr-17 13:30N 42°21' W 071°03'0 0.2
2018-Apr-17 13:00N 42°21' W 071°03'0 0.2
2018-Apr-17 12:30N 42°21' W 071°03'0 0.0
2018-Apr-17 12:00N 42°21' W 071°03'0 0.0
2018-Apr-17 11:30N 42°21' W 071°03'0 0.0
2018-Apr-17 11:00N 42°21' W 071°03'0 0.0
2018-Apr-17 10:30N 42°21' W 071°03'0 0.0
2018-Apr-17 10:00N 42°21' W 071°03'0 0.0
2018-Apr-17 09:30N 42°21' W 071°03'0 0.2
2018-Apr-17 09:00N 42°21' W 071°03'0 0.2
2018-Apr-17 08:29N 42°21' W 071°03'0 0.0
2018-Apr-17 07:59N 42°21' W 071°03'0 0.0
2018-Apr-17 07:30N 42°21' W 071°03'0 0.0
2018-Apr-17 07:00N 42°21' W 071°03'0 0.0
2018-Apr-17 06:30N 42°21' W 071°03'0 0.0
2018-Apr-17 06:00N 42°21' W 071°03'0 0.0
2018-Apr-17 05:28N 42°21' W 071°03'0 0.0
2018-Apr-17 04:59N 42°21' W 071°03'0 0.0
2018-Apr-17 04:30N 42°21' W 071°03'0 0.0
2018-Apr-17 04:00N 42°21' W 071°03'0 0.0
2018-Apr-17 03:30N 42°21' W 071°03'0 0.0
2018-Apr-17 03:01N 42°21' W 071°03'0 0.0
2018-Apr-17 02:30N 42°21' W 071°03'0 0.0
2018-Apr-17 02:00N 42°21' W 071°03'0 0.0
2018-Apr-17 01:31N 42°21' W 071°03'0 0.0
2018-Apr-17 01:00N 42°21' W 071°03'0 0.0
2018-Apr-17 00:30N 42°21' W 071°03'0 0.0
2018-Apr-17 00:00N 42°21' W 071°03'0 0.0
2018-Apr-16 23:30N 42°21' W 071°03'0 0.0
2018-Apr-16 23:00N 42°21' W 071°03'0 0.0
2018-Apr-16 22:30N 42°21' W 071°03'0 0.0
2018-Apr-16 22:00N 42°21' W 071°03'0 0.0
2018-Apr-16 21:30N 42°21' W 071°03'0 0.0
2018-Apr-16 21:00N 42°21' W 071°03'0 0.0
2018-Apr-16 20:30N 42°21' W 071°03'0 0.0
2018-Apr-16 20:00N 42°21' W 071°03'0 0.0
2018-Apr-16 19:30N 42°21' W 071°03'0 0.0
2018-Apr-16 19:00N 42°21' W 071°03'0 0.0
2018-Apr-16 18:30N 42°21' W 071°03'0 0.0
2018-Apr-16 18:00N 42°21' W 071°03'0 0.0
2018-Apr-16 17:30N 42°21' W 071°03'0 0.0
2018-Apr-16 17:01N 42°21' W 071°03'0 0.0
2018-Apr-16 16:30N 42°21' W 071°03'0 0.0
2018-Apr-16 16:00N 42°21' W 071°03'0 0.0
2018-Apr-16 15:30N 42°21' W 071°03'0 0.0
2018-Apr-16 15:01N 42°21' W 071°03'0 0.0
2018-Apr-16 14:30N 42°21' W 071°03'0 0.0
2018-Apr-16 14:00N 42°21' W 071°03'0 0.0
2018-Apr-16 13:30N 42°21' W 071°03'0 0.0
2018-Apr-16 13:00N 42°21' W 071°03'0 0.0
2018-Apr-16 12:30N 42°21' W 071°03'0 0.0
2018-Apr-16 12:00N 42°21' W 071°03'0 0.0
2018-Apr-16 11:30N 42°21' W 071°03'0 0.0
2018-Apr-16 11:00N 42°21' W 071°03'0 0.0
2018-Apr-16 10:30N 42°21' W 071°03'0 0.0
2018-Apr-16 10:00N 42°21' W 071°03'0 0.0
2018-Apr-16 09:30N 42°21' W 071°03'0 0.0
2018-Apr-16 09:00N 42°21' W 071°03'0 0.0
2018-Apr-16 08:30N 42°21' W 071°03'0 0.0
2018-Apr-16 08:00N 42°21' W 071°03'0 0.0
2018-Apr-16 07:30N 42°21' W 071°03'0 0.0
2018-Apr-16 07:01N 42°21' W 071°03'0 0.0
2018-Apr-16 06:31N 42°21' W 071°03'0 0.0
2018-Apr-16 06:00N 42°21' W 071°03'0 0.0
2018-Apr-16 05:30N 42°21' W 071°03'0 0.0
2018-Apr-16 05:00N 42°21' W 071°03'0 0.0
2018-Apr-16 04:30N 42°21' W 071°03'0 0.0
2018-Apr-16 04:00N 42°21' W 071°03'0 0.0
2018-Apr-16 03:30N 42°21' W 071°03'0 0.0
2018-Apr-16 03:00N 42°21' W 071°03'0 0.0
2018-Apr-16 02:30N 42°21' W 071°03'0 0.0
2018-Apr-16 02:00N 42°21' W 071°03'0 0.0
2018-Apr-16 01:30N 42°21' W 071°03'0 0.0
2018-Apr-16 01:00N 42°21' W 071°03'0 0.0
2018-Apr-16 00:30N 42°21' W 071°03'0 0.0
2018-Apr-16 00:01N 42°21' W 071°03'0 0.0
2018-Apr-15 23:30N 42°21' W 071°03'0 0.0
2018-Apr-15 23:00N 42°21' W 071°03'0 0.0
2018-Apr-15 22:30N 42°21' W 071°03'0 0.0
2018-Apr-15 22:01N 42°21' W 071°03'0 0.0
2018-Apr-15 21:30N 42°21' W 071°03'0 0.0
2018-Apr-15 21:00N 42°21' W 071°03'0 0.0
2018-Apr-15 20:30N 42°21' W 071°03'0 0.0
2018-Apr-15 20:00N 42°21' W 071°03'0 0.0
2018-Apr-15 19:30N 42°21' W 071°03'0 0.0
2018-Apr-15 19:00N 42°21' W 071°03'0 0.0
2018-Apr-15 18:30N 42°21' W 071°03'0 0.0
2018-Apr-15 18:00N 42°21' W 071°03'0 0.0
2018-Apr-15 17:30N 42°21' W 071°03'0 0.0
2018-Apr-15 17:00N 42°21' W 071°03'0 0.0
2018-Apr-15 16:30N 42°21' W 071°03'0 0.0
2018-Apr-15 16:00N 42°21' W 071°03'0 0.0
2018-Apr-15 15:30N 42°21' W 071°03'0 0.0
2018-Apr-15 15:01N 42°21' W 071°03'0 0.0
2018-Apr-15 14:31N 42°21' W 071°03'0 0.0
2018-Apr-15 14:00N 42°21' W 071°03'0 0.0
2018-Apr-15 13:30N 42°21' W 071°03'0 0.0
2018-Apr-15 13:00N 42°21' W 071°03'0 0.0
2018-Apr-15 12:30N 42°21' W 071°03'0 0.0
2018-Apr-15 12:01N 42°21' W 071°03'0 0.0
2018-Apr-15 11:30N 42°21' W 071°03'0 0.0
2018-Apr-15 11:01N 42°21' W 071°03'0 0.0
2018-Apr-15 10:31N 42°21' W 071°03'0 0.0
2018-Apr-15 10:01N 42°21' W 071°03'0 0.0
2018-Apr-15 09:30N 42°21' W 071°03'0 0.1
2018-Apr-15 09:00N 42°21' W 071°03'0 0.1
2018-Apr-15 08:30N 42°21' W 071°03'0 0.0
2018-Apr-15 08:00N 42°21' W 071°03'0 0.0
2018-Apr-15 07:30N 42°21' W 071°03'0 0.0
2018-Apr-15 07:01N 42°21' W 071°03'0 0.0
2018-Apr-15 06:30N 42°21' W 071°03'0 0.0
2018-Apr-15 06:00N 42°21' W 071°03'0 0.0
2018-Apr-15 05:30N 42°21' W 071°03'0 0.0
2018-Apr-15 05:00N 42°21' W 071°03'0 0.0
2018-Apr-15 04:31N 42°21' W 071°03'0 0.0
2018-Apr-15 04:00N 42°21' W 071°03'0 0.0
2018-Apr-15 03:30N 42°21' W 071°03'0 0.0
2018-Apr-15 03:00N 42°21' W 071°03'0 0.0
2018-Apr-15 02:30N 42°21' W 071°03'0 0.0
2018-Apr-15 02:00N 42°21' W 071°03'0 0.0
2018-Apr-15 01:30N 42°21' W 071°03'0 0.2
2018-Apr-15 01:00N 42°21' W 071°03'0 0.2
2018-Apr-15 00:30N 42°21' W 071°03'0 0.0
2018-Apr-15 00:00N 42°21' W 071°03'0 0.0
2018-Apr-14 23:30N 42°21' W 071°03'0 0.0
2018-Apr-14 23:01N 42°21' W 071°03'0 0.0
2018-Apr-14 22:31N 42°21' W 071°03'0 0.0
2018-Apr-14 22:00N 42°21' W 071°03'0 0.0
2018-Apr-14 21:30N 42°21' W 071°03'0 0.0
2018-Apr-14 21:00N 42°21' W 071°03'0 0.0
2018-Apr-14 20:30N 42°21' W 071°03'0 0.0
2018-Apr-14 20:00N 42°21' W 071°03'2 3.7
2018-Apr-14 19:30N 42°21' W 071°01'1 1.0
2018-Apr-14 19:00N 42°20' W 071°00'3 5.6
2018-Apr-14 18:31N 42°22' W 071°03'1 1.6
2018-Apr-14 18:00N 42°21' W 071°03'0 0.0
2018-Apr-14 17:31N 42°21' W 071°03'0 0.0
2018-Apr-14 17:00N 42°21' W 071°03'0 0.0
2018-Apr-14 16:31N 42°21' W 071°03'0 0.0
2018-Apr-14 16:00N 42°21' W 071°03'0 0.0
2018-Apr-14 15:30N 42°21' W 071°03'0 0.0
2018-Apr-14 15:00N 42°21' W 071°03'0 0.0
2018-Apr-14 14:30N 42°21' W 071°03'0 0.0
2018-Apr-14 14:00N 42°21' W 071°03'0 0.0
2018-Apr-14 13:30N 42°21' W 071°03'0 0.0
2018-Apr-14 13:00N 42°21' W 071°03'0 0.0
2018-Apr-14 12:30N 42°21' W 071°03'0 0.0
2018-Apr-14 12:00N 42°21' W 071°03'0 0.0
2018-Apr-14 11:31N 42°21' W 071°03'0 0.0
2018-Apr-14 11:00N 42°21' W 071°03'0 0.0
2018-Apr-14 10:30N 42°21' W 071°03'0 0.2
2018-Apr-14 10:00N 42°21' W 071°03'0 0.2
2018-Apr-14 09:30N 42°21' W 071°03'0 0.1
2018-Apr-14 09:00N 42°21' W 071°03'0 0.1
2018-Apr-14 08:31N 42°21' W 071°03'0 0.3
2018-Apr-14 08:01N 42°21' W 071°03'0 0.3
2018-Apr-14 07:30N 42°21' W 071°03'0 0.0
2018-Apr-14 07:00N 42°21' W 071°03'0 0.0
2018-Apr-14 06:30N 42°21' W 071°03'0 0.0
2018-Apr-14 06:00N 42°21' W 071°03'0 0.0
2018-Apr-14 05:30N 42°21' W 071°03'0 0.0
2018-Apr-14 05:00N 42°21' W 071°03'0 0.0
2018-Apr-14 04:31N 42°21' W 071°03'0 0.0
2018-Apr-14 04:01N 42°21' W 071°03'0 0.0
2018-Apr-14 03:30N 42°21' W 071°03'0 0.0
2018-Apr-14 03:00N 42°21' W 071°03'0 0.0
2018-Apr-14 02:30N 42°21' W 071°03'0 0.0
2018-Apr-14 02:00N 42°21' W 071°03'1 2.4
2018-Apr-14 01:30N 42°21' W 071°01'1 1.6
2018-Apr-14 01:00N 42°21' W 071°01'1 1.3
2018-Apr-14 00:30N 42°20' W 071°00'2 3.7
2018-Apr-14 00:00N 42°21' W 071°02'1 2.4
2018-Apr-13 23:30N 42°22' W 071°03'1 1.6
2018-Apr-13 23:00N 42°21' W 071°03'0 0.0
2018-Apr-13 22:30N 42°21' W 071°03'0 0.0
2018-Apr-13 22:00N 42°21' W 071°03'0 0.2
2018-Apr-13 21:31N 42°21' W 071°03'0 0.2
2018-Apr-13 21:00N 42°21' W 071°03'0 0.0
2018-Apr-13 20:30N 42°21' W 071°03'0 0.0
2018-Apr-13 20:00N 42°21' W 071°03'0 0.0
2018-Apr-13 19:30N 42°21' W 071°03'0 0.0
2018-Apr-13 19:00N 42°21' W 071°03'0 0.0
2018-Apr-13 18:30N 42°21' W 071°03'0 0.0
2018-Apr-13 18:01N 42°21' W 071°03'0 0.0
2018-Apr-13 17:30N 42°21' W 071°03'0 0.0
2018-Apr-13 17:00N 42°21' W 071°03'0 0.0
2018-Apr-13 16:00N 42°21' W 071°03'0 0.0
2018-Apr-13 15:30N 42°21' W 071°03'0 0.0
2018-Apr-13 15:00N 42°21' W 071°03'0 0.0
2018-Apr-13 14:30N 42°21' W 071°03'0 0.0
2018-Apr-13 14:00N 42°21' W 071°03'0 0.0
2018-Apr-13 13:30N 42°21' W 071°03'0 0.0
2018-Apr-13 13:00N 42°21' W 071°03'0 0.0
2018-Apr-13 12:30N 42°21' W 071°03'0 0.0
2018-Apr-13 12:00N 42°21' W 071°03'0 0.0
2018-Apr-13 11:30N 42°21' W 071°03'0 0.0
2018-Apr-13 11:00N 42°21' W 071°03'0 0.0
2018-Apr-13 10:30N 42°21' W 071°03'0 0.0
2018-Apr-13 10:00N 42°21' W 071°03'0 0.0
2018-Apr-13 09:30N 42°21' W 071°03'0 0.2
2018-Apr-13 09:00N 42°21' W 071°03'0 0.2
2018-Apr-13 08:30N 42°21' W 071°03'0 0.3
2018-Apr-13 08:00N 42°21' W 071°03'0 0.3
2018-Apr-13 07:30N 42°21' W 071°03'0 0.0
2018-Apr-13 07:00N 42°21' W 071°03'0 0.0
2018-Apr-13 06:30N 42°21' W 071°03'0 0.0
2018-Apr-13 06:00N 42°21' W 071°03'0 0.0
2018-Apr-13 05:30N 42°21' W 071°03'0 0.0
2018-Apr-13 05:00N 42°21' W 071°03'0 0.0
2018-Apr-13 04:30N 42°21' W 071°03'0 0.0
2018-Apr-13 04:00N 42°21' W 071°03'  

Dump ship's entire track history